Phnom Penh, Cambodia
Current Conditions -  °F | °C
As of 1:00 AM on Wednesday 22 Oct 2014 (Local Time) from VDPP Reporting Station
Few Clouds Few Clouds  
Wind Chill: 79°   Ceiling: Unl
Heat Index: 82°   Visibility: 6mi
Dew Point: 75°   Wind: 2mph
Humidity: 89%   Direction: NA
Pressure: 29.85"   Gusts: NA
Location:  11.56°N, 104.92°E
Report Text: VDPP 211800Z VRB02KT 9000 FEW015 FEW017CB 26/24 Q1011 CB:S
Loading
Personal Weather Stations






























Interactive Weather Map
Tropical Storm Tracking
New forecast layout! Learn more

10-Day Weather Forecast

Advertisements
Track Severe Weather on mobile